createdAt,value
2022-10-16T00:01:53.044Z,6.07
2022-10-16T00:04:22.123Z,5.85
2022-10-16T00:06:49.854Z,5.75
2022-10-16T00:09:17.985Z,5.43
2022-10-16T00:11:47.618Z,5.28
2022-10-16T00:14:17.066Z,5.20
2022-10-16T00:16:46.654Z,5.12
2022-10-16T00:19:14.524Z,4.85
2022-10-16T00:21:43.294Z,5.32
2022-10-16T00:24:29.641Z,5.35
2022-10-16T00:26:59.385Z,5.95
2022-10-16T00:29:26.976Z,5.18
2022-10-16T00:31:56.610Z,5.07
2022-10-16T00:34:27.394Z,5.45
2022-10-16T00:36:55.570Z,4.97
2022-10-16T00:39:23.371Z,6.12
2022-10-16T00:41:52.614Z,5.32
2022-10-16T00:44:51.074Z,5.07
2022-10-16T00:47:25.921Z,5.62
2022-10-16T00:49:58.811Z,5.37
2022-10-16T00:52:29.351Z,5.78
2022-10-16T00:54:59.645Z,5.30
2022-10-16T00:57:30.282Z,6.07
2022-10-16T00:59:59.338Z,6.60
2022-10-16T01:02:27.112Z,5.50
2022-10-16T01:04:57.475Z,5.45
2022-10-16T01:07:46.411Z,6.07
2022-10-16T01:10:29.564Z,5.97
2022-10-16T01:13:19.885Z,5.23
2022-10-16T01:16:07.848Z,6.00
2022-10-16T01:18:40.939Z,6.05
2022-10-16T01:21:26.606Z,5.78
2022-10-16T01:23:58.561Z,6.85
2022-10-16T01:26:38.896Z,5.95
2022-10-16T01:29:11.004Z,5.50
2022-10-16T01:31:42.312Z,6.12
2022-10-16T01:34:19.610Z,6.07
2022-10-16T01:37:00.660Z,6.35
2022-10-16T01:39:33.041Z,5.93
2022-10-16T01:42:07.381Z,6.72
2022-10-16T01:44:37.988Z,6.45
2022-10-16T01:47:10.608Z,6.68
2022-10-16T01:49:41.133Z,5.80
2022-10-16T01:52:14.488Z,6.05
2022-10-16T01:54:43.977Z,6.30
2022-10-16T01:57:15.779Z,6.28
2022-10-16T01:59:45.956Z,5.78
2022-10-16T02:02:14.524Z,5.40
2022-10-16T02:05:07.081Z,5.78
2022-10-16T02:07:36.008Z,5.95
2022-10-16T02:10:04.190Z,5.72
2022-10-16T02:12:34.689Z,6.05
2022-10-16T02:15:05.245Z,6.40
2022-10-16T02:17:33.444Z,6.05
2022-10-16T02:20:01.823Z,6.35
2022-10-16T02:22:47.802Z,6.72
2022-10-16T02:25:19.893Z,5.60
2022-10-16T02:28:19.682Z,6.80
2022-10-16T02:30:57.520Z,6.62
2022-10-16T02:33:32.060Z,5.85
2022-10-16T02:36:00.180Z,5.78
2022-10-16T02:38:28.849Z,5.97
2022-10-16T02:40:57.823Z,6.37
2022-10-16T02:43:26.232Z,6.47
2022-10-16T02:45:54.510Z,6.62
2022-10-16T02:48:22.859Z,5.75
2022-10-16T02:50:50.974Z,6.10
2022-10-16T02:53:18.818Z,6.40
2022-10-16T02:55:48.672Z,6.03
2022-10-16T02:58:18.947Z,6.60
2022-10-16T03:00:47.235Z,6.37
2022-10-16T03:03:16.237Z,5.85
2022-10-16T03:05:46.869Z,6.20
2022-10-16T03:08:16.756Z,6.57
2022-10-16T03:10:46.680Z,5.72
2022-10-16T03:13:15.441Z,5.70
2022-10-16T03:15:43.438Z,5.50
2022-10-16T03:18:12.850Z,6.40
2022-10-16T03:20:40.698Z,6.37
2022-10-16T03:23:10.045Z,5.72
2022-10-16T03:25:38.447Z,6.05
2022-10-16T03:28:07.216Z,6.00
2022-10-16T03:30:35.523Z,6.07
2022-10-16T03:33:05.130Z,5.55
2022-10-16T03:35:36.135Z,5.97
2022-10-16T03:38:04.229Z,6.65
2022-10-16T03:40:33.382Z,6.72
2022-10-16T03:43:02.448Z,5.68
2022-10-16T03:45:31.104Z,5.70
2022-10-16T03:47:59.236Z,5.40
2022-10-16T03:50:28.368Z,5.32
2022-10-16T03:52:56.269Z,5.12
2022-10-16T03:55:24.558Z,5.43
2022-10-16T03:57:53.451Z,5.32
2022-10-16T04:00:21.404Z,5.82
2022-10-16T04:02:51.519Z,5.60
2022-10-16T04:05:19.445Z,5.20
2022-10-16T04:07:48.428Z,4.82
2022-10-16T04:10:18.326Z,5.00
2022-10-16T04:12:46.523Z,5.85
2022-10-16T04:15:15.254Z,5.97
2022-10-16T04:17:45.328Z,5.47
2022-10-16T04:20:13.806Z,5.90
2022-10-16T04:22:41.350Z,5.55
2022-10-16T04:25:10.053Z,5.45
2022-10-16T04:27:42.172Z,5.70
2022-10-16T04:30:14.132Z,6.70
2022-10-16T04:32:52.625Z,5.70
2022-10-16T04:35:23.318Z,5.62
2022-10-16T04:37:52.484Z,5.03
2022-10-16T04:40:21.910Z,5.18
2022-10-16T04:42:50.770Z,5.78
2022-10-16T04:45:19.387Z,5.72
2022-10-16T04:47:50.436Z,6.65
2022-10-16T04:50:18.407Z,6.40
2022-10-16T04:53:02.156Z,6.68
2022-10-16T04:55:30.797Z,6.72
2022-10-16T04:58:00.609Z,5.60
2022-10-16T05:00:30.245Z,5.97
2022-10-16T05:02:59.395Z,6.05
2022-10-16T05:05:29.247Z,6.50
2022-10-16T05:07:57.234Z,5.82
2022-10-16T05:10:25.758Z,6.35
2022-10-16T05:12:55.353Z,5.53
2022-10-16T05:15:26.099Z,5.78
2022-10-16T05:17:55.224Z,6.25
2022-10-16T05:20:24.050Z,6.70
2022-10-16T05:22:51.895Z,6.45
2022-10-16T05:25:21.986Z,6.68
2022-10-16T05:27:51.540Z,7.43
2022-10-16T05:30:21.846Z,5.75
2022-10-16T05:32:51.083Z,6.65
2022-10-16T05:35:20.799Z,6.97
2022-10-16T05:37:50.738Z,7.40
2022-10-16T05:40:18.598Z,7.65
2022-10-16T05:42:47.126Z,7.50
2022-10-16T05:45:16.869Z,7.05
2022-10-16T05:47:45.851Z,7.50
2022-10-16T05:50:13.851Z,8.38
2022-10-16T05:52:43.072Z,7.65
2022-10-16T05:55:11.862Z,8.65
2022-10-16T05:57:42.963Z,7.53
2022-10-16T06:00:11.896Z,7.47
2022-10-16T06:02:44.524Z,6.62
2022-10-16T06:05:13.628Z,6.37
2022-10-16T06:07:41.608Z,7.10
2022-10-16T06:10:13.063Z,6.68
2022-10-16T06:12:40.883Z,6.95
2022-10-16T06:15:11.017Z,6.78
2022-10-16T06:17:41.382Z,6.97
2022-10-16T06:20:09.735Z,6.65
2022-10-16T06:22:38.595Z,6.47
2022-10-16T06:25:07.725Z,6.15
2022-10-16T06:27:35.340Z,6.80
2022-10-16T06:30:04.894Z,6.90
2022-10-16T06:32:33.092Z,7.15
2022-10-16T06:35:01.246Z,6.90
2022-10-16T06:37:29.600Z,7.30
2022-10-16T06:40:01.167Z,6.97
2022-10-16T06:42:29.133Z,6.82
2022-10-16T06:44:59.601Z,7.55
2022-10-16T06:47:29.529Z,7.12
2022-10-16T06:49:58.074Z,7.45
2022-10-16T06:52:29.375Z,7.30
2022-10-16T06:54:58.566Z,6.93
2022-10-16T06:57:26.804Z,6.82
2022-10-16T06:59:55.472Z,6.90
2022-10-16T07:02:25.391Z,6.30
2022-10-16T07:04:55.791Z,6.45
2022-10-16T07:07:29.039Z,6.93
2022-10-16T07:09:57.718Z,6.62
2022-10-16T07:12:26.186Z,5.87
2022-10-16T07:14:58.290Z,5.75
2022-10-16T07:17:25.760Z,6.10
2022-10-16T07:19:54.591Z,6.62
2022-10-16T07:22:27.537Z,5.78
2022-10-16T07:24:55.749Z,6.80
2022-10-16T07:27:25.914Z,6.12
2022-10-16T07:29:54.543Z,6.55
2022-10-16T07:32:23.141Z,6.82
2022-10-16T07:34:53.842Z,7.35
2022-10-16T07:37:21.970Z,6.05
2022-10-16T07:39:49.587Z,6.30
2022-10-16T07:42:21.131Z,5.90
2022-10-16T07:44:49.097Z,6.28
2022-10-16T07:47:19.345Z,6.32
2022-10-16T07:49:47.281Z,5.62
2022-10-16T07:52:15.352Z,6.12
2022-10-16T07:54:44.903Z,5.82
2022-10-16T07:57:20.520Z,6.30
2022-10-16T07:59:48.417Z,6.35
2022-10-16T08:02:16.571Z,5.68
2022-10-16T08:04:48.740Z,5.55
2022-10-16T08:07:17.915Z,6.15
2022-10-16T08:09:51.263Z,5.72
2022-10-16T08:12:19.470Z,5.80
2022-10-16T08:14:47.828Z,5.35
2022-10-16T08:17:16.376Z,5.43
2022-10-16T08:19:48.562Z,6.18
2022-10-16T08:22:16.381Z,5.80
2022-10-16T08:24:44.338Z,7.00
2022-10-16T08:27:13.700Z,5.85
2022-10-16T08:29:41.929Z,6.45
2022-10-16T08:32:09.897Z,6.57
2022-10-16T08:34:38.161Z,6.07
2022-10-16T08:37:09.156Z,6.55
2022-10-16T08:39:37.721Z,6.20
2022-10-16T08:42:29.024Z,6.32
2022-10-16T08:45:20.969Z,6.82
2022-10-16T08:47:59.896Z,5.97
2022-10-16T08:50:31.323Z,6.43
2022-10-16T08:53:01.864Z,5.62
2022-10-16T08:55:38.961Z,6.03
2022-10-16T08:58:22.771Z,5.62
2022-10-16T09:01:15.230Z,5.90
2022-10-16T09:03:55.404Z,6.43
2022-10-16T09:06:58.606Z,5.80
2022-10-16T09:09:33.479Z,5.55
2022-10-16T09:12:09.433Z,5.82
2022-10-16T09:14:44.043Z,6.35
2022-10-16T09:17:29.398Z,6.60
2022-10-16T09:20:02.406Z,5.87
2022-10-16T09:22:31.756Z,5.95
2022-10-16T09:25:01.987Z,5.93
2022-10-16T09:27:30.156Z,6.35
2022-10-16T09:29:59.990Z,5.85
2022-10-16T09:32:29.801Z,6.75
2022-10-16T09:34:58.761Z,5.87
2022-10-16T09:37:27.152Z,6.75
2022-10-16T09:39:56.734Z,8.20
2022-10-16T09:42:37.036Z,6.03
2022-10-16T09:45:07.523Z,6.15
2022-10-16T09:47:45.794Z,5.10
2022-10-16T09:50:27.770Z,5.95
2022-10-16T09:53:14.617Z,6.05
2022-10-16T09:55:51.242Z,6.55
2022-10-16T09:58:19.284Z,5.25
2022-10-16T10:00:53.986Z,5.57
2022-10-16T10:03:36.436Z,5.70
2022-10-16T10:06:29.787Z,6.05
2022-10-16T10:09:03.390Z,5.93
2022-10-16T10:11:50.090Z,6.45
2022-10-16T10:14:37.442Z,5.25
2022-10-16T10:17:05.624Z,5.82
2022-10-16T10:19:46.452Z,5.78
2022-10-16T10:22:37.109Z,6.13
2022-10-16T10:25:14.806Z,6.03
2022-10-16T10:28:04.417Z,5.28
2022-10-16T10:30:40.615Z,5.00
2022-10-16T10:33:29.586Z,5.25
2022-10-16T10:36:07.378Z,5.20
2022-10-16T10:38:46.341Z,4.90
2022-10-16T10:41:39.375Z,4.90
2022-10-16T10:44:29.183Z,4.97
2022-10-16T10:49:30.888Z,4.60
2022-10-16T10:52:14.162Z,4.82
2022-10-16T10:55:03.741Z,4.68
2022-10-16T10:57:47.169Z,5.47
2022-10-16T11:00:30.177Z,5.30
2022-10-16T11:03:19.815Z,4.57
2022-10-16T11:06:18.535Z,4.05
2022-10-16T11:09:05.318Z,4.57
2022-10-16T11:11:41.418Z,4.82
2022-10-16T11:14:16.862Z,4.57
2022-10-16T11:16:49.869Z,4.85
2022-10-16T11:19:36.528Z,4.45
2022-10-16T11:22:13.729Z,3.97
2022-10-16T11:24:50.355Z,5.20
2022-10-16T11:27:21.767Z,4.18
2022-10-16T11:30:02.518Z,3.95
2022-10-16T11:32:34.995Z,4.10
2022-10-16T11:35:18.705Z,3.85
2022-10-16T11:37:48.002Z,3.83
2022-10-16T11:40:25.306Z,4.07
2022-10-16T11:43:06.521Z,3.85
2022-10-16T11:45:39.982Z,3.95
2022-10-16T11:48:19.022Z,3.97
2022-10-16T11:50:53.011Z,4.05
2022-10-16T11:53:47.716Z,3.47
2022-10-16T11:56:21.978Z,3.92
2022-10-16T11:58:54.669Z,3.83
2022-10-16T12:01:31.498Z,3.67
2022-10-16T12:04:13.439Z,3.53
2022-10-16T12:07:08.576Z,3.75
2022-10-16T12:09:40.419Z,3.83
2022-10-16T12:12:29.115Z,3.80
2022-10-16T12:15:26.005Z,3.80
2022-10-16T12:18:03.186Z,3.50
2022-10-16T12:20:33.791Z,3.83
2022-10-16T12:23:03.622Z,3.87
2022-10-16T12:25:34.163Z,3.40
2022-10-16T12:28:13.879Z,4.18
2022-10-16T12:30:44.640Z,3.30
2022-10-16T12:33:27.674Z,3.70
2022-10-16T12:35:56.201Z,3.58
2022-10-16T12:38:46.772Z,3.55
2022-10-16T12:41:27.216Z,3.97
2022-10-16T12:43:55.075Z,3.65
2022-10-16T12:46:25.008Z,3.60
2022-10-16T12:49:06.705Z,3.70
2022-10-16T12:51:38.462Z,3.67
2022-10-16T12:54:19.095Z,3.78
2022-10-16T12:56:47.218Z,3.83
2022-10-16T12:59:32.730Z,4.50
2022-10-16T13:02:26.361Z,3.62
2022-10-16T13:05:01.788Z,3.83
2022-10-16T13:07:36.660Z,3.90
2022-10-16T13:10:42.475Z,3.58
2022-10-16T13:13:17.559Z,3.10
2022-10-16T13:16:23.494Z,3.80
2022-10-16T13:19:15.056Z,3.00
2022-10-16T13:21:43.132Z,3.17
2022-10-16T13:24:35.025Z,3.53
2022-10-16T13:27:09.344Z,3.22
2022-10-16T13:29:37.777Z,3.10
2022-10-16T13:32:10.561Z,3.00
2022-10-16T13:34:49.990Z,3.12
2022-10-16T13:37:23.587Z,3.65
2022-10-16T13:40:06.141Z,2.92
2022-10-16T13:42:34.711Z,3.15
2022-10-16T13:45:03.271Z,3.20
2022-10-16T13:47:31.275Z,3.33
2022-10-16T13:50:06.525Z,3.10
2022-10-16T13:52:35.865Z,3.15
2022-10-16T13:55:04.104Z,3.40
2022-10-16T13:57:31.807Z,3.10
2022-10-16T14:00:00.155Z,3.30
2022-10-16T14:02:38.482Z,3.70
2022-10-16T14:05:11.064Z,3.67
2022-10-16T14:10:09.221Z,3.35
2022-10-16T14:12:38.434Z,3.20
2022-10-16T14:15:07.047Z,2.83
2022-10-16T14:17:36.551Z,3.55
2022-10-16T14:20:07.466Z,3.50
2022-10-16T14:22:41.677Z,3.30
2022-10-16T14:25:30.471Z,3.55
2022-10-16T14:30:30.709Z,3.45
2022-10-16T14:33:07.580Z,3.45
2022-10-16T14:35:38.348Z,2.90
2022-10-16T14:38:07.448Z,2.95
2022-10-16T14:40:37.059Z,3.10
2022-10-16T14:43:06.016Z,3.12
2022-10-16T14:45:36.120Z,3.12
2022-10-16T14:48:19.683Z,3.15
2022-10-16T14:50:48.038Z,3.30
2022-10-16T14:53:17.064Z,2.90
2022-10-16T14:55:45.417Z,3.30
2022-10-16T14:58:20.701Z,2.95
2022-10-16T15:00:49.575Z,3.47
2022-10-16T15:03:17.925Z,3.10
2022-10-16T15:05:47.468Z,3.45
2022-10-16T15:08:15.811Z,3.05
2022-10-16T15:10:44.745Z,3.00
2022-10-16T15:13:13.993Z,3.35
2022-10-16T15:15:44.370Z,3.10
2022-10-16T15:18:12.430Z,3.87
2022-10-16T15:20:40.583Z,3.35
2022-10-16T15:23:15.346Z,3.45
2022-10-16T15:25:52.612Z,2.72
2022-10-16T15:28:22.661Z,3.08
2022-10-16T15:30:55.732Z,3.45
2022-10-16T15:33:37.089Z,3.40
2022-10-16T15:36:12.437Z,4.00
2022-10-16T15:38:40.058Z,3.30
2022-10-16T15:41:09.210Z,3.70
2022-10-16T15:43:37.609Z,3.87
2022-10-16T15:46:07.360Z,4.30
2022-10-16T15:48:36.277Z,3.42
2022-10-16T15:51:08.159Z,3.78
2022-10-16T15:53:37.395Z,3.78
2022-10-16T15:56:06.724Z,3.55
2022-10-16T15:58:35.479Z,3.90
2022-10-16T16:01:05.559Z,3.85
2022-10-16T16:03:34.037Z,3.85
2022-10-16T16:06:08.396Z,4.50
2022-10-16T16:08:37.407Z,4.18
2022-10-16T16:11:11.287Z,5.15
2022-10-16T16:13:41.531Z,4.68
2022-10-16T16:16:14.002Z,5.07
2022-10-16T16:18:46.178Z,4.43
2022-10-16T16:21:14.497Z,4.85
2022-10-16T16:23:42.809Z,4.32
2022-10-16T16:26:16.536Z,4.43
2022-10-16T16:28:44.639Z,5.03
2022-10-16T16:31:14.098Z,5.70
2022-10-16T16:33:43.295Z,5.57
2022-10-16T16:36:15.417Z,4.93
2022-10-16T16:38:46.238Z,5.20
2022-10-16T16:41:16.856Z,5.45
2022-10-16T16:46:16.488Z,6.80
2022-10-16T16:51:19.631Z,6.47
2022-10-16T16:53:53.612Z,6.68
2022-10-16T16:56:23.094Z,6.62
2022-10-16T16:58:55.035Z,7.72
2022-10-16T17:01:25.760Z,8.13
2022-10-16T17:03:57.996Z,8.52
2022-10-16T17:06:28.802Z,7.53
2022-10-16T17:08:58.110Z,7.95
2022-10-16T17:11:28.355Z,6.53
2022-10-16T17:14:00.217Z,7.12
2022-10-16T17:16:37.926Z,6.40
2022-10-16T17:19:10.114Z,6.32
2022-10-16T17:21:40.381Z,6.30
2022-10-16T17:24:11.392Z,6.22
2022-10-16T17:26:44.597Z,6.95
2022-10-16T17:29:14.424Z,6.45
2022-10-16T17:31:47.309Z,6.07
2022-10-16T17:34:18.553Z,8.25
2022-10-16T17:36:48.219Z,8.13
2022-10-16T17:39:23.065Z,9.10
2022-10-16T17:41:52.431Z,9.40
2022-10-16T17:44:22.373Z,9.88
2022-10-16T17:46:53.148Z,7.30
2022-10-16T17:52:03.529Z,9.57
2022-10-16T17:54:33.908Z,9.10
2022-10-16T17:57:05.406Z,11.15
2022-10-16T17:59:35.473Z,10.40
2022-10-16T18:02:04.358Z,11.80
2022-10-16T18:04:36.800Z,12.57
2022-10-16T18:07:08.751Z,15.43
2022-10-16T18:09:49.408Z,14.32
2022-10-16T18:12:26.993Z,11.80
2022-10-16T18:14:59.162Z,13.00
2022-10-16T18:17:30.060Z,14.20
2022-10-16T18:19:58.884Z,14.07
2022-10-16T18:22:27.794Z,15.52
2022-10-16T18:24:58.871Z,15.63
2022-10-16T18:27:26.941Z,16.15
2022-10-16T18:29:58.529Z,17.58
2022-10-16T18:32:28.664Z,17.55
2022-10-16T18:34:57.934Z,17.83
2022-10-16T18:37:26.613Z,17.87
2022-10-16T18:39:57.443Z,18.12
2022-10-16T18:42:26.528Z,16.83
2022-10-16T18:44:56.420Z,16.42
2022-10-16T18:47:29.710Z,15.43
2022-10-16T18:52:28.617Z,15.93
2022-10-16T18:54:58.568Z,17.25
2022-10-16T18:57:32.981Z,16.35
2022-10-16T19:00:05.402Z,16.60
2022-10-16T19:02:42.167Z,17.20
2022-10-16T19:05:15.688Z,16.40
2022-10-16T19:07:49.040Z,16.35
2022-10-16T19:10:18.932Z,14.90
2022-10-16T19:12:47.978Z,14.38
2022-10-16T19:15:16.709Z,14.15
2022-10-16T19:17:49.962Z,15.43
2022-10-16T19:20:20.017Z,15.18
2022-10-16T19:22:54.138Z,15.95
2022-10-16T19:25:24.210Z,15.90
2022-10-16T19:27:53.043Z,14.43
2022-10-16T19:30:21.673Z,15.90
2022-10-16T19:32:53.148Z,15.48
2022-10-16T19:35:23.393Z,15.70
2022-10-16T19:37:53.573Z,17.90
2022-10-16T19:40:23.192Z,15.57
2022-10-16T19:42:52.885Z,16.10
2022-10-16T19:45:22.675Z,17.70
2022-10-16T19:47:55.260Z,16.58
2022-10-16T19:50:22.898Z,18.08
2022-10-16T19:52:50.811Z,18.23
2022-10-16T19:55:20.671Z,18.80
2022-10-16T19:57:49.355Z,19.50
2022-10-16T20:00:24.099Z,19.05
2022-10-16T20:02:53.249Z,18.80
2022-10-16T20:05:20.693Z,18.35
2022-10-16T20:07:48.849Z,16.80
2022-10-16T20:10:19.656Z,15.82
2022-10-16T20:12:50.360Z,16.98
2022-10-16T20:15:21.399Z,16.33
2022-10-16T20:17:50.626Z,15.82
2022-10-16T20:20:23.085Z,16.23
2022-10-16T20:22:52.764Z,14.00
2022-10-16T20:25:29.568Z,15.20
2022-10-16T20:27:59.450Z,13.82
2022-10-16T20:30:35.824Z,14.93
2022-10-16T20:33:10.661Z,15.18
2022-10-16T20:35:46.998Z,15.80
2022-10-16T20:38:20.436Z,15.60
2022-10-16T20:40:50.022Z,14.93
2022-10-16T20:43:20.372Z,14.07
2022-10-16T20:46:02.125Z,14.75
2022-10-16T20:48:37.483Z,13.48
2022-10-16T20:51:19.693Z,11.73
2022-10-16T20:53:56.776Z,13.07
2022-10-16T20:56:30.839Z,12.63
2022-10-16T20:59:02.480Z,11.52
2022-10-16T21:01:32.153Z,11.75
2022-10-16T21:04:02.881Z,10.82
2022-10-16T21:06:36.974Z,10.65
2022-10-16T21:09:06.782Z,11.40
2022-10-16T21:11:36.144Z,11.65
2022-10-16T21:14:07.590Z,10.93
2022-10-16T21:16:36.351Z,10.53
2022-10-16T21:19:04.393Z,11.23
2022-10-16T21:21:36.618Z,11.60
2022-10-16T21:24:06.760Z,11.80
2022-10-16T21:26:34.627Z,13.32
2022-10-16T21:29:06.091Z,14.38
2022-10-16T21:31:35.798Z,13.73
2022-10-16T21:34:04.378Z,13.40
2022-10-16T21:36:37.383Z,13.23
2022-10-16T21:39:09.118Z,12.98
2022-10-16T21:41:37.956Z,11.90
2022-10-16T21:44:08.540Z,13.27
2022-10-16T21:46:39.125Z,13.40
2022-10-16T21:49:12.066Z,12.98
2022-10-16T21:51:42.189Z,13.62
2022-10-16T21:54:18.861Z,13.18
2022-10-16T21:56:47.211Z,12.52
2022-10-16T21:59:16.043Z,14.20
2022-10-16T22:01:46.179Z,13.25
2022-10-16T22:04:16.983Z,14.23
2022-10-16T22:06:46.331Z,12.40
2022-10-16T22:09:17.153Z,14.30
2022-10-16T22:11:46.454Z,12.37
2022-10-16T22:14:23.837Z,14.48
2022-10-16T22:16:53.145Z,14.13
2022-10-16T22:19:24.330Z,12.93
2022-10-16T22:22:01.273Z,13.55
2022-10-16T22:24:34.608Z,14.10
2022-10-16T22:27:03.672Z,12.98
2022-10-16T22:29:35.928Z,12.60
2022-10-16T22:32:12.610Z,14.68
2022-10-16T22:34:46.141Z,14.57
2022-10-16T22:37:16.383Z,13.98
2022-10-16T22:39:48.635Z,13.93
2022-10-16T22:42:21.417Z,16.20
2022-10-16T22:45:00.118Z,13.68
2022-10-16T22:47:33.681Z,12.68
2022-10-16T22:50:11.138Z,11.60
2022-10-16T22:52:40.581Z,10.88
2022-10-16T22:55:15.029Z,10.52
2022-10-16T22:57:46.219Z,10.73
2022-10-16T23:00:20.412Z,11.63
2022-10-16T23:02:51.244Z,10.13
2022-10-16T23:05:23.283Z,10.82
2022-10-16T23:07:53.937Z,9.90
2022-10-16T23:10:30.485Z,12.55
2022-10-16T23:13:01.665Z,11.82
2022-10-16T23:15:32.745Z,12.25
2022-10-16T23:18:02.540Z,10.30
2022-10-16T23:20:36.552Z,9.98
2022-10-16T23:23:05.837Z,10.70
2022-10-16T23:25:45.336Z,10.43
2022-10-16T23:30:45.169Z,10.82
2022-10-16T23:33:17.893Z,10.10
2022-10-16T23:35:51.679Z,10.25
2022-10-16T23:38:26.586Z,11.05
2022-10-16T23:41:01.081Z,11.38
2022-10-16T23:43:31.160Z,10.85
2022-10-16T23:46:08.650Z,9.32
2022-10-16T23:48:39.523Z,9.25
2022-10-16T23:51:16.380Z,8.52
2022-10-16T23:53:46.056Z,8.82
2022-10-16T23:56:17.008Z,9.65
2022-10-16T23:58:48.515Z,10.32
